createdAt,value
2019-04-11T00:04:26.291Z,100750.43
2019-04-11T00:09:28.451Z,100754.98
2019-04-11T00:14:31.635Z,100756.69
2019-04-11T00:19:33.953Z,100752.98
2019-04-11T00:24:36.746Z,100756.59
2019-04-11T00:29:38.924Z,100755.69
2019-04-11T00:34:40.985Z,100757.10
2019-04-11T00:39:43.731Z,100756.70
2019-04-11T00:44:45.905Z,100763.78
2019-04-11T00:49:48.481Z,100764.72
2019-04-11T00:54:51.177Z,100769.63
2019-04-11T00:59:54.329Z,100770.56
2019-04-11T01:04:57.108Z,100765.20
2019-04-11T01:09:59.406Z,100767.34
2019-04-11T01:15:01.446Z,100770.41
2019-04-11T01:20:06.996Z,100774.20
2019-04-11T01:25:10.357Z,100776.53
2019-04-11T01:30:24.904Z,100776.80
2019-04-11T01:35:27.189Z,100781.52
2019-04-11T01:40:29.842Z,100786.16
2019-04-11T01:45:32.228Z,100785.69
2019-04-11T01:50:35.017Z,100788.63
2019-04-11T01:55:37.174Z,100797.23
2019-04-11T02:01:06.379Z,100798.72
2019-04-11T02:06:09.737Z,100807.02
2019-04-11T02:11:12.937Z,100804.78
2019-04-11T02:16:15.210Z,100808.73
2019-04-11T02:21:17.813Z,100819.13
2019-04-11T02:26:29.410Z,100818.15
2019-04-11T02:31:32.598Z,100828.88
2019-04-11T02:36:36.425Z,100830.98
2019-04-11T02:41:39.852Z,100827.94
2019-04-11T02:46:50.372Z,100835.86
2019-04-11T02:51:47.324Z,100838.51
2019-04-11T02:56:52.463Z,100840.48
2019-04-11T03:01:55.778Z,100846.94
2019-04-11T03:07:00.111Z,100845.89
2019-04-11T03:12:02.969Z,100844.42
2019-04-11T03:17:13.037Z,100848.35
2019-04-11T03:22:10.298Z,100843.17
2019-04-11T03:27:12.535Z,100846.85
2019-04-11T03:33:00.593Z,100849.72
2019-04-11T03:37:43.094Z,100862.41
2019-04-11T03:42:38.140Z,100868.27
2019-04-11T03:47:37.482Z,100868.98
2019-04-11T03:52:32.752Z,100871.73
2019-04-11T03:57:35.215Z,100866.41
2019-04-11T04:02:38.988Z,100873.88
2019-04-11T04:07:41.485Z,100880.75
2019-04-11T04:12:45.248Z,100891.96
2019-04-11T04:17:59.556Z,100895.63
2019-04-11T04:23:20.867Z,100896.83
2019-04-11T04:28:23.853Z,100903.03
2019-04-11T04:33:27.276Z,100907.36
2019-04-11T04:38:31.605Z,100912.53
2019-04-11T04:43:36.195Z,100924.02
2019-04-11T04:48:38.297Z,100927.47
2019-04-11T04:53:43.058Z,100929.91
2019-04-11T04:58:46.691Z,100945.30
2019-04-11T05:03:50.866Z,100943.84
2019-04-11T05:08:53.094Z,100951.70
2019-04-11T05:13:56.573Z,100955.97
2019-04-11T05:19:01.434Z,100960.94
2019-04-11T05:24:04.068Z,100957.33
2019-04-11T05:29:06.920Z,100963.35
2019-04-11T05:34:09.955Z,100971.78
2019-04-11T05:39:13.092Z,100966.52
2019-04-11T05:44:16.725Z,100974.50
2019-04-11T05:49:41.659Z,100976.31
2019-04-11T05:54:54.339Z,100981.91
2019-04-11T05:59:57.734Z,100979.27
2019-04-11T06:05:06.861Z,100979.68
2019-04-11T06:10:14.673Z,100992.35
2019-04-11T06:15:21.517Z,100988.53
2019-04-11T06:20:43.523Z,100994.02
2019-04-11T06:26:24.686Z,100991.63
2019-04-11T06:31:45.448Z,100996.75
2019-04-11T06:36:55.785Z,101009.68
2019-04-11T06:42:16.446Z,101013.98
2019-04-11T06:47:40.989Z,101007.35
2019-04-11T06:52:43.412Z,101006.33
2019-04-11T06:57:46.239Z,101008.17
2019-04-11T07:02:59.354Z,100995.56
2019-04-11T07:08:02.159Z,100993.70
2019-04-11T07:13:33.146Z,100996.11
2019-04-11T07:18:57.035Z,101002.45
2019-04-11T07:24:18.184Z,100999.58
2019-04-11T07:29:40.197Z,100999.13
2019-04-11T07:35:17.372Z,101007.64
2019-04-11T07:40:58.887Z,101014.13
2019-04-11T07:46:25.221Z,101007.59
2019-04-11T07:51:28.576Z,101008.16
2019-04-11T07:56:59.132Z,101007.37
2019-04-11T08:02:23.934Z,101003.94
2019-04-11T08:07:53.084Z,101013.77
2019-04-11T08:12:56.144Z,101010.83
2019-04-11T08:18:01.970Z,101012.31
2019-04-11T08:23:07.590Z,101018.23
2019-04-11T08:28:13.917Z,101022.64
2019-04-11T08:33:16.239Z,101017.23
2019-04-11T08:38:24.686Z,101014.62
2019-04-11T08:43:29.448Z,101016.56
2019-04-11T08:48:33.282Z,101026.05
2019-04-11T08:53:53.821Z,101027.75
2019-04-11T08:59:31.397Z,101026.59
2019-04-11T09:05:06.918Z,101026.80
2019-04-11T09:10:28.726Z,101031.35
2019-04-11T09:15:49.241Z,101038.59
2019-04-11T09:21:18.196Z,101040.97
2019-04-11T09:26:41.133Z,101034.52
2019-04-11T09:32:07.688Z,101041.35
2019-04-11T09:37:22.074Z,101042.41
2019-04-11T09:42:49.334Z,101041.42
2019-04-11T09:48:14.752Z,101046.03
2019-04-11T09:53:14.322Z,101044.63
2019-04-11T09:58:23.652Z,101050.59
2019-04-11T10:03:28.118Z,101058.84
2019-04-11T10:08:44.647Z,101059.29
2019-04-11T10:14:01.762Z,101070.59
2019-04-11T10:19:07.633Z,101056.99
2019-04-11T10:24:21.267Z,101049.33
2019-04-11T10:29:42.372Z,101059.43
2019-04-11T10:35:20.167Z,101048.88
2019-04-11T10:40:42.164Z,101047.39
2019-04-11T10:46:07.209Z,101049.88
2019-04-11T10:51:13.204Z,101048.07
2019-04-11T10:56:41.244Z,101041.17
2019-04-11T11:02:06.624Z,101045.59
2019-04-11T11:07:14.503Z,101049.15
2019-04-11T11:12:35.172Z,101059.88
2019-04-11T11:18:29.637Z,101039.69
2019-04-11T11:23:29.501Z,101039.58
2019-04-11T11:28:34.126Z,101038.84
2019-04-11T11:33:38.507Z,101045.19
2019-04-11T11:38:44.049Z,101048.66
2019-04-11T11:43:48.265Z,101051.47
2019-04-11T11:48:58.150Z,101050.20
2019-04-11T11:54:09.713Z,101047.25
2019-04-11T11:59:21.229Z,101048.92
2019-04-11T12:04:42.925Z,101050.57
2019-04-11T12:10:03.196Z,101055.59
2019-04-11T12:15:43.557Z,101056.05
2019-04-11T12:20:54.723Z,101056.30
2019-04-11T12:25:55.788Z,101052.53
2019-04-11T12:31:03.822Z,101055.23
2019-04-11T12:36:14.694Z,101062.16
2019-04-11T12:41:28.877Z,101057.11
2019-04-11T12:46:49.208Z,101058.58
2019-04-11T12:52:09.738Z,101048.10
2019-04-11T12:57:30.276Z,101047.53
2019-04-11T13:02:59.456Z,101059.88
2019-04-11T13:08:20.150Z,101044.11
2019-04-11T13:13:35.987Z,101050.22
2019-04-11T13:18:56.790Z,101054.83
2019-04-11T13:24:17.287Z,101059.79
2019-04-11T13:29:26.578Z,101063.58
2019-04-11T13:34:28.824Z,101058.93
2019-04-11T13:39:31.012Z,101058.38
2019-04-11T13:44:35.349Z,101054.74
2019-04-11T13:49:51.438Z,101050.81
2019-04-11T13:55:00.526Z,101044.44
2019-04-11T14:01:14.816Z,101041.22
2019-04-11T14:06:21.676Z,101037.70
2019-04-11T14:11:24.093Z,101032.55
2019-04-11T14:16:26.365Z,101032.86
2019-04-11T14:21:31.452Z,101042.14
2019-04-11T14:26:36.637Z,101047.31
2019-04-11T14:37:02.038Z,101056.85
2019-04-11T14:42:29.463Z,101051.18
2019-04-11T14:47:50.289Z,101052.48
2019-04-11T14:53:20.867Z,101052.48
2019-04-11T14:58:40.972Z,101047.30
2019-04-11T15:04:13.515Z,101050.94
2019-04-11T15:09:35.220Z,101047.64
2019-04-11T15:14:51.694Z,101049.80
2019-04-11T15:20:10.282Z,101046.49
2019-04-11T15:25:22.132Z,101051.92
2019-04-11T15:30:24.981Z,101055.05
2019-04-11T15:35:27.378Z,101056.45
2019-04-11T15:40:35.547Z,101061.27
2019-04-11T15:46:01.291Z,101055.41
2019-04-11T15:51:21.747Z,101058.13
2019-04-11T15:56:42.088Z,101055.55
2019-04-11T16:02:06.602Z,101058.84
2019-04-11T16:07:42.533Z,101070.69
2019-04-11T16:12:52.439Z,101066.27
2019-04-11T16:18:26.276Z,101071.49
2019-04-11T16:23:36.668Z,101064.79
2019-04-11T16:29:00.239Z,101065.16
2019-04-11T16:34:08.927Z,101070.02
2019-04-11T16:39:49.985Z,101083.34
2019-04-11T16:45:12.523Z,101090.39
2019-04-11T16:50:14.605Z,101088.05
2019-04-11T16:55:16.740Z,101084.70
2019-04-11T17:00:20.615Z,101079.50
2019-04-11T17:05:23.998Z,101077.37
2019-04-11T17:10:45.831Z,101079.77
2019-04-11T17:15:47.927Z,101078.16
2019-04-11T17:20:50.033Z,101091.80
2019-04-11T17:25:53.083Z,101087.05
2019-04-11T17:30:56.010Z,101090.39
2019-04-11T17:36:02.141Z,101090.03
2019-04-11T17:41:02.301Z,101093.80
2019-04-11T17:46:04.343Z,101108.72
2019-04-11T17:51:06.486Z,101115.58
2019-04-11T17:56:08.613Z,101126.20
2019-04-11T18:01:10.825Z,101122.66
2019-04-11T18:06:16.913Z,101131.02
2019-04-11T18:11:17.133Z,101128.77
2019-04-11T18:16:19.183Z,101142.96
2019-04-11T18:21:21.219Z,101140.28
2019-04-11T18:26:23.300Z,101157.38
2019-04-11T18:31:25.653Z,101155.05
2019-04-11T18:36:31.796Z,101160.92
2019-04-11T18:41:32.951Z,101167.09
2019-04-11T18:46:35.039Z,101169.08
2019-04-11T18:51:37.115Z,101181.84
2019-04-11T18:56:39.166Z,101185.42
2019-04-11T19:01:41.306Z,101185.78
2019-04-11T19:06:45.434Z,101193.92
2019-04-11T19:11:51.544Z,101195.48
2019-04-11T19:16:53.822Z,101199.14
2019-04-11T19:21:56.283Z,101193.16
2019-04-11T19:26:58.370Z,101194.30
2019-04-11T19:32:00.434Z,101198.03
2019-04-11T19:37:03.845Z,101197.66
2019-04-11T19:42:09.161Z,101200.66
2019-04-11T19:47:11.857Z,101197.75
2019-04-11T19:52:13.965Z,101199.82
2019-04-11T19:57:16.046Z,101196.39
2019-04-11T20:02:18.186Z,101201.67
2019-04-11T20:07:20.355Z,101202.15
2019-04-11T20:12:22.450Z,101197.39
2019-04-11T20:17:24.510Z,101203.83
2019-04-11T20:22:26.617Z,101205.41
2019-04-11T20:27:28.707Z,101207.19
2019-04-11T20:32:33.146Z,101206.72
2019-04-11T20:37:39.534Z,101206.33
2019-04-11T20:42:39.122Z,101211.00
2019-04-11T20:47:41.156Z,101200.30
2019-04-11T20:52:43.245Z,101200.36
2019-04-11T20:57:45.311Z,101213.89
2019-04-11T21:02:48.680Z,101207.09
2019-04-11T21:07:50.756Z,101207.73
2019-04-11T21:12:52.850Z,101207.17
2019-04-11T21:17:56.102Z,101199.99
2019-04-11T21:22:58.789Z,101209.89
2019-04-11T21:28:00.966Z,101207.54
2019-04-11T21:33:03.663Z,101201.50
2019-04-11T21:38:06.534Z,101204.20
2019-04-11T21:43:08.599Z,101196.94
2019-04-11T21:48:12.902Z,101196.17
2019-04-11T21:53:15.313Z,101197.30
2019-04-11T21:58:20.194Z,101197.11
2019-04-11T22:03:24.073Z,101195.24
2019-04-11T22:08:25.607Z,101195.81
2019-04-11T22:13:27.683Z,101198.59
2019-04-11T22:18:29.811Z,101186.02
2019-04-11T22:23:31.987Z,101194.61
2019-04-11T22:28:34.375Z,101191.82
2019-04-11T22:33:50.744Z,101192.21
2019-04-11T22:38:52.865Z,101190.05
2019-04-11T22:43:54.925Z,101196.28
2019-04-11T22:48:57.058Z,101190.42
2019-04-11T22:54:00.500Z,101189.86
2019-04-11T22:59:02.805Z,101199.07
2019-04-11T23:04:05.249Z,101201.50
2019-04-11T23:09:07.673Z,101199.94
2019-04-11T23:14:09.778Z,101194.80
2019-04-11T23:19:14.333Z,101198.53
2019-04-11T23:24:15.937Z,101201.40
2019-04-11T23:29:18.063Z,101195.53
2019-04-11T23:34:22.108Z,101197.58
2019-04-11T23:39:24.179Z,101194.41
2019-04-11T23:44:26.244Z,101202.59
2019-04-11T23:49:28.438Z,101204.16
2019-04-11T23:54:30.545Z,101202.56
2019-04-11T23:59:32.767Z,101199.81
